Terminal Aerodrome Forecast
Issued by NWS

Home | Current Version | Previous Version | Text Only | Print | Product List | Glossary On
Versions: 1 2 3 4 5 6 7 8 9 10 11 12 13 14 15 16 17 18 19 20 21
000
FTUS42 KFFC 041133
TAFRYY
TAF
KRYY 041133Z 0412/0512 17004KT 1/4SM FG BKN002
      TEMPO 0412/0414 1/4SM FG
     FM041400 21007KT 3/4SM BR BKN003
     FM041500 22008KT 3SM BR BKN007 OVC012
     FM041700 22011KT P6SM BKN012
     FM042200 22010G20KT P6SM BKN025
     FM050200 20007KT P6SM VCSH BKN012
     FM050700 21006KT 4SM SHRA BR OVC004=

USA.gov is the U.S. government's official web portal to all federal, state and local government web resources and services.